Alice International Airport
KALI : rendu visible

Aérodrome :











RETROUVEZ-NOUS SUR...

 
LOGIN :

S'inscrire | Disclaimer

   EN    FR    IT 

 









Légende :    VFR   VFR Marginal   IFR   IFR Intensif   IFR Très Intensif
Visi : 
Plafond : 
>= 8 km
>= 3000ft
5 à 8 km
1000 à 3000 ft
1500m à 5 km
500 à 1000 ft
800 à 1500m
200 à 500 ft
< 800m
< 200 ft
Symboles :   Orages  Brouillard  Fortes neiges  Fortes précipitations  Vent > 20 kt






- Altitude de l'aérodrome : 178 ft


KALI - Alice International

DERNIER METAR :
  • 210053Z AUTO 13007KT 10SM CLR 12/M02 A3046 RMK AO2 SLP313 T01171017 $

METARs EXPIRÉS :
  • 202353Z AUTO 11006KT 10SM CLR 15/M03 A3045 RMK AO2 SLP310 T01501033 10189 20150 56008 $
  • 202253Z AUTO 12007KT 10SM CLR 17/M04 A3045 RMK AO2 SLP311 T01721039 $

TAF KALI
Valide du 21 à 00h jusqu'au 22 à 00h UTC


202334Z 2100/2124 10005KT P6SM FEW080
FM211700 11013G20KT P6SM FEW035 OVC070



MET'MAP, la Météo Aéronautique d'un coup d'oeil ! - Copyright ORBIFLY Décembre 2007 - Disclaimer

ORBIFLY MET'MAP TEAM :

Programmation & Développement : Alexandra Zaïnal
Sur une idée originale de : Baudouin d'Aumeries
Assistance à la programmation : Marc-Olivier Méhu
Soutien technique & logistique : Manuel Goepfert

Contact : metmap@orbifly.com




SOURCES & CREDITS :

   NOAA       Earth
Advisory